<?xml version="1.0" encoding="utf-8"?>
<gpx xmlns:xsi="http://www.w3.org/2001/XMLSchema-instance" xmlns:xsd="http://www.w3.org/2001/XMLSchema" version="1.1" creator="Shapelink.com" xmlns="http://www.topografix.com/GPX/1/1" xmlns:gpxtpx="http://www.garmin.com/xmlschemas/TrackPointExtension/v1">
  <metadata>
    <name>Övrigt 2.32 km, 2019-05-09</name>
    <desc></desc>
    <author><name>Marian Moron</name></author> 
    <time>2019-05-09T20:55:56Z</time>
  </metadata>
  <trk>
    <name>Övrigt 2.32 km, 2019-05-09</name>
    <trkseg>
      <trkpt lat="51.229863424071" lon="4.458061958449">
        <ele>3.8</ele>
        <time>2019-05-09T20:55:56Z</time>
      </trkpt>
      <trkpt lat="51.229897706042" lon="4.45785987084">
        <ele>3.4</ele>
        <time>2019-05-09T20:55:58Z</time>
      </trkpt>
      <trkpt lat="51.229970041839" lon="4.458181819619">
        <ele>3.6</ele>
        <time>2019-05-09T20:56:47Z</time>
      </trkpt>
      <trkpt lat="51.229987895286" lon="4.458402766503">
        <ele>3.8</ele>
        <time>2019-05-09T20:57:07Z</time>
      </trkpt>
      <trkpt lat="51.230061823644" lon="4.458730666431">
        <ele>3.2</ele>
        <time>2019-05-09T20:57:26Z</time>
      </trkpt>
      <trkpt lat="51.230515032977" lon="4.45862849107">
        <ele>0</ele>
        <time>2019-05-09T20:57:45Z</time>
      </trkpt>
      <trkpt lat="51.230895487418" lon="4.45852707008">
        <ele>0</ele>
        <time>2019-05-09T20:58:07Z</time>
      </trkpt>
      <trkpt lat="51.231108136221" lon="4.458459428147">
        <ele>0</ele>
        <time>2019-05-09T20:58:24Z</time>
      </trkpt>
      <trkpt lat="51.231433773036" lon="4.458294472355">
        <ele>0</ele>
        <time>2019-05-09T20:59:00Z</time>
      </trkpt>
      <trkpt lat="51.23157425368" lon="4.4582907005">
        <ele>1</ele>
        <time>2019-05-09T20:59:13Z</time>
      </trkpt>
      <trkpt lat="51.231597471543" lon="4.458385248332">
        <ele>1.6</ele>
        <time>2019-05-09T20:59:18Z</time>
      </trkpt>
      <trkpt lat="51.231696545601" lon="4.458934598058">
        <ele>4.6</ele>
        <time>2019-05-09T20:59:44Z</time>
      </trkpt>
      <trkpt lat="51.231848174172" lon="4.459633313242">
        <ele>5.4</ele>
        <time>2019-05-09T21:00:06Z</time>
      </trkpt>
      <trkpt lat="51.231993935413" lon="4.460312330961">
        <ele>5.6</ele>
        <time>2019-05-09T21:00:27Z</time>
      </trkpt>
      <trkpt lat="51.231993683956" lon="4.460455829089">
        <ele>6</ele>
        <time>2019-05-09T21:00:45Z</time>
      </trkpt>
      <trkpt lat="51.23211823899" lon="4.461179857611">
        <ele>8.4</ele>
        <time>2019-05-09T21:01:05Z</time>
      </trkpt>
      <trkpt lat="51.232199291963" lon="4.461622841026">
        <ele>4</ele>
        <time>2019-05-09T21:01:22Z</time>
      </trkpt>
      <trkpt lat="51.232308340482" lon="4.462329351377">
        <ele>9.2</ele>
        <time>2019-05-09T21:01:41Z</time>
      </trkpt>
      <trkpt lat="51.232416802268" lon="4.463046087646">
        <ele>11.6</ele>
        <time>2019-05-09T21:02:06Z</time>
      </trkpt>
      <trkpt lat="51.232482432545" lon="4.463437270919">
        <ele>6.2</ele>
        <time>2019-05-09T21:02:38Z</time>
      </trkpt>
      <trkpt lat="51.232483773649" lon="4.464121653054">
        <ele>3.4</ele>
        <time>2019-05-09T21:03:06Z</time>
      </trkpt>
      <trkpt lat="51.232497771422" lon="4.464302282999">
        <ele>0</ele>
        <time>2019-05-09T21:03:17Z</time>
      </trkpt>
      <trkpt lat="51.232687034724" lon="4.464484589324">
        <ele>0</ele>
        <time>2019-05-09T21:03:35Z</time>
      </trkpt>
      <trkpt lat="51.232927511435" lon="4.464725568949">
        <ele>0</ele>
        <time>2019-05-09T21:03:54Z</time>
      </trkpt>
      <trkpt lat="51.232939916647" lon="4.464816512564">
        <ele>0.4</ele>
        <time>2019-05-09T21:03:58Z</time>
      </trkpt>
      <trkpt lat="51.232994650454" lon="4.46485624277">
        <ele>1.8</ele>
        <time>2019-05-09T21:04:04Z</time>
      </trkpt>
      <trkpt lat="51.233130353415" lon="4.464616604249">
        <ele>0</ele>
        <time>2019-05-09T21:04:17Z</time>
      </trkpt>
      <trkpt lat="51.233252142422" lon="4.464651137677">
        <ele>0</ele>
        <time>2019-05-09T21:04:29Z</time>
      </trkpt>
      <trkpt lat="51.233091629037" lon="4.465055983447">
        <ele>0</ele>
        <time>2019-05-09T21:04:50Z</time>
      </trkpt>
      <trkpt lat="51.232845452634" lon="4.465652271813">
        <ele>0</ele>
        <time>2019-05-09T21:05:21Z</time>
      </trkpt>
      <trkpt lat="51.232726681111" lon="4.465803984203">
        <ele>1.4</ele>
        <time>2019-05-09T21:05:34Z</time>
      </trkpt>
      <trkpt lat="51.232613357823" lon="4.466090309907">
        <ele>3.2</ele>
        <time>2019-05-09T21:05:48Z</time>
      </trkpt>
      <trkpt lat="51.232581087508" lon="4.466155856365">
        <ele>2.2</ele>
        <time>2019-05-09T21:05:52Z</time>
      </trkpt>
      <trkpt lat="51.23245938232" lon="4.466409911754">
        <ele>2.4</ele>
        <time>2019-05-09T21:06:07Z</time>
      </trkpt>
      <trkpt lat="51.232429626575" lon="4.466454587281">
        <ele>1.8</ele>
        <time>2019-05-09T21:06:19Z</time>
      </trkpt>
      <trkpt lat="51.232160902861" lon="4.467047522887">
        <ele>0.8</ele>
        <time>2019-05-09T21:06:54Z</time>
      </trkpt>
      <trkpt lat="51.232156711911" lon="4.467067723266">
        <ele>0.6</ele>
        <time>2019-05-09T21:06:55Z</time>
      </trkpt>
      <trkpt lat="51.232143217052" lon="4.467133940276">
        <ele>0.2</ele>
        <time>2019-05-09T21:06:59Z</time>
      </trkpt>
      <trkpt lat="51.231942889642" lon="4.467560411348">
        <ele>4</ele>
        <time>2019-05-09T21:07:41Z</time>
      </trkpt>
      <trkpt lat="51.231893436432" lon="4.467619671381">
        <ele>5.8</ele>
        <time>2019-05-09T21:07:53Z</time>
      </trkpt>
      <trkpt lat="51.231826297413" lon="4.467612798223">
        <ele>4.2</ele>
        <time>2019-05-09T21:07:59Z</time>
      </trkpt>
      <trkpt lat="51.23179972679" lon="4.467533756906">
        <ele>4.2</ele>
        <time>2019-05-09T21:08:02Z</time>
      </trkpt>
      <trkpt lat="51.231811545269" lon="4.46747893928">
        <ele>3.8</ele>
        <time>2019-05-09T21:08:05Z</time>
      </trkpt>
      <trkpt lat="51.231740382938" lon="4.467400233239">
        <ele>0.4</ele>
        <time>2019-05-09T21:08:21Z</time>
      </trkpt>
      <trkpt lat="51.231444418049" lon="4.467361927956">
        <ele>0.4</ele>
        <time>2019-05-09T21:08:44Z</time>
      </trkpt>
      <trkpt lat="51.23109145624" lon="4.467473658683">
        <ele>3.8</ele>
        <time>2019-05-09T21:09:13Z</time>
      </trkpt>
      <trkpt lat="51.230720054251" lon="4.467453039209">
        <ele>1.6</ele>
        <time>2019-05-09T21:09:56Z</time>
      </trkpt>
      <trkpt lat="51.230681665149" lon="4.467237205284">
        <ele>0.2</ele>
        <time>2019-05-09T21:10:11Z</time>
      </trkpt>
      <trkpt lat="51.230701194976" lon="4.466512338572">
        <ele>0</ele>
        <time>2019-05-09T21:10:45Z</time>
      </trkpt>
      <trkpt lat="51.230734806395" lon="4.465769450775">
        <ele>4.4</ele>
        <time>2019-05-09T21:11:11Z</time>
      </trkpt>
      <trkpt lat="51.230724580477" lon="4.465045506072">
        <ele>3.8</ele>
        <time>2019-05-09T21:11:32Z</time>
      </trkpt>
      <trkpt lat="51.230578232503" lon="4.464375876081">
        <ele>6</ele>
        <time>2019-05-09T21:12:03Z</time>
      </trkpt>
      <trkpt lat="51.230470189812" lon="4.463977987288">
        <ele>6.8</ele>
        <time>2019-05-09T21:12:35Z</time>
      </trkpt>
      <trkpt lat="51.230391902866" lon="4.463873464995">
        <ele>8.2</ele>
        <time>2019-05-09T21:12:51Z</time>
      </trkpt>
      <trkpt lat="51.230290062781" lon="4.463967090818">
        <ele>8</ele>
        <time>2019-05-09T21:13:01Z</time>
      </trkpt>
      <trkpt lat="51.23000097105" lon="4.464250818133">
        <ele>2.8</ele>
        <time>2019-05-09T21:13:31Z</time>
      </trkpt>
      <trkpt lat="51.229543151672" lon="4.464301277171">
        <ele>9.8</ele>
        <time>2019-05-09T21:14:07Z</time>
      </trkpt>
      <trkpt lat="51.229248779344" lon="4.464346120336">
        <ele>3.8</ele>
        <time>2019-05-09T21:14:32Z</time>
      </trkpt>
      <trkpt lat="51.229107963424" lon="4.464078234812">
        <ele>9.6</ele>
        <time>2019-05-09T21:14:54Z</time>
      </trkpt>
      <trkpt lat="51.229096312583" lon="4.463633575017">
        <ele>2.2</ele>
        <time>2019-05-09T21:15:34Z</time>
      </trkpt>
      <trkpt lat="51.229075190195" lon="4.463499296979">
        <ele>0.6</ele>
        <time>2019-05-09T21:15:43Z</time>
      </trkpt>
      <trkpt lat="51.22903705255" lon="4.463234093663">
        <ele>0</ele>
        <time>2019-05-09T21:16:00Z</time>
      </trkpt>
      <trkpt lat="51.229039315663" lon="4.463154214156">
        <ele>0</ele>
        <time>2019-05-09T21:16:07Z</time>
      </trkpt>
      <trkpt lat="51.229039148025" lon="4.463016164263">
        <ele>0</ele>
        <time>2019-05-09T21:16:14Z</time>
      </trkpt>
      <trkpt lat="51.229026742813" lon="4.462557590514">
        <ele>0.2</ele>
        <time>2019-05-09T21:16:45Z</time>
      </trkpt>
      <trkpt lat="51.229021378397" lon="4.46239028779">
        <ele>0</ele>
        <time>2019-05-09T21:17:04Z</time>
      </trkpt>
      <trkpt lat="51.229002351484" lon="4.462222565971">
        <ele>0.8</ele>
        <time>2019-05-09T21:17:18Z</time>
      </trkpt>
      <trkpt lat="51.229002938217" lon="4.462168418897">
        <ele>1.4</ele>
        <time>2019-05-09T21:17:23Z</time>
      </trkpt>
      <trkpt lat="51.229017438904" lon="4.461991812264">
        <ele>4.2</ele>
        <time>2019-05-09T21:17:38Z</time>
      </trkpt>
      <trkpt lat="51.229018528551" lon="4.461852672724">
        <ele>6.6</ele>
        <time>2019-05-09T21:17:47Z</time>
      </trkpt>
      <trkpt lat="51.22897502649" lon="4.461622421931">
        <ele>7.8</ele>
        <time>2019-05-09T21:18:03Z</time>
      </trkpt>
      <trkpt lat="51.228878969916" lon="4.461546733374">
        <ele>5.2</ele>
        <time>2019-05-09T21:18:35Z</time>
      </trkpt>
      <trkpt lat="51.228847956886" lon="4.46150767372">
        <ele>4.2</ele>
        <time>2019-05-09T21:18:39Z</time>
      </trkpt>
      <trkpt lat="51.228445709505" lon="4.461221515654">
        <ele>0.2</ele>
        <time>2019-05-09T21:19:18Z</time>
      </trkpt>
      <trkpt lat="51.228446380057" lon="4.460956060881">
        <ele>0</ele>
        <time>2019-05-09T21:19:55Z</time>
      </trkpt>
      <trkpt lat="51.228207998821" lon="4.460593627525">
        <ele>11</ele>
        <time>2019-05-09T21:20:39Z</time>
      </trkpt>
      <trkpt lat="51.228117641939" lon="4.460449961759">
        <ele>6.4</ele>
        <time>2019-05-09T21:20:51Z</time>
      </trkpt>
      <trkpt lat="51.228188385175" lon="4.460345523285">
        <ele>0</ele>
        <time>2019-05-09T21:21:19Z</time>
      </trkpt>
      <trkpt lat="51.228164245303" lon="4.460293806962">
        <ele>0</ele>
        <time>2019-05-09T21:21:23Z</time>
      </trkpt>
      <trkpt lat="51.228219565843" lon="4.460158606915">
        <ele>0</ele>
        <time>2019-05-09T21:21:34Z</time>
      </trkpt>
      <trkpt lat="51.228406146937" lon="4.459516218099">
        <ele>0</ele>
        <time>2019-05-09T21:22:10Z</time>
      </trkpt>
      <trkpt lat="51.228588453262" lon="4.459194353139">
        <ele>0</ele>
        <time>2019-05-09T21:22:31Z</time>
      </trkpt>
      <trkpt lat="51.228914006258" lon="4.459089998484">
        <ele>0</ele>
        <time>2019-05-09T21:22:56Z</time>
      </trkpt>
      <trkpt lat="51.229044344803" lon="4.459039120351">
        <ele>0</ele>
        <time>2019-05-09T21:23:07Z</time>
      </trkpt>
      <trkpt lat="51.22942429633" lon="4.458919007724">
        <ele>0</ele>
        <time>2019-05-09T21:23:38Z</time>
      </trkpt>
      <trkpt lat="51.229633592373" lon="4.458860585881">
        <ele>0</ele>
        <time>2019-05-09T21:23:55Z</time>
      </trkpt>
      <trkpt lat="51.229898376594" lon="4.458787830989">
        <ele>0</ele>
        <time>2019-05-09T21:24:15Z</time>
      </trkpt>
      <trkpt lat="51.2298878154" lon="4.458571745607">
        <ele>0</ele>
        <time>2019-05-09T21:24:31Z</time>
      </trkpt>
      <trkpt lat="51.229845235348" lon="4.457951317369">
        <ele>6.2</ele>
        <time>2019-05-09T21:25:05Z</time>
      </trkpt>
      <trkpt lat="51.229715902631" lon="4.458018121112">
        <ele>3</ele>
        <time>2019-05-09T21:25:42Z</time>
      </trkpt>
    </trkseg>
  </trk>
</gpx>